Time;durP1;ratioP1;P1;durP2;ratioP2;P2;SDS_P1;SDS_P2;PMS_P1;PMS_P2;Temp;Humidity;BMP_temperature;BMP_pressure;BME280_temperature;BME280_humidity;BME280_pressure;Samples;Min_cycle;Max_cycle;Signal;HPM_P1;HPM_P2
2020/12/26 00:00:46;;;;;;;6.05;3.40;;;5.00;99.90;;;;;;4138760;28;20525;-68
2020/12/26 00:02:47;;;;;;;8.98;4.22;;;4.90;99.90;;;;;;4137493;28;20042;-68
2020/12/26 00:04:48;;;;;;;9.68;3.67;;;4.90;99.90;;;;;;4139042;28;20081;-68
2020/12/26 00:06:51;;;;;;;7.85;3.17;;;4.90;99.90;;;;;;4145548;28;20030;-68
2020/12/26 00:08:53;;;;;;;6.25;3.63;;;4.90;99.90;;;;;;4154852;28;20048;-68
2020/12/26 00:10:53;;;;;;;6.20;3.35;;;4.90;99.90;;;;;;4133752;28;20096;-68
2020/12/26 00:12:54;;;;;;;8.85;3.85;;;4.80;99.90;;;;;;4156528;28;20497;-68
2020/12/26 00:14:55;;;;;;;7.75;3.47;;;4.90;99.90;;;;;;4140636;28;20041;-68
2020/12/26 00:16:57;;;;;;;13.63;4.47;;;4.80;99.90;;;;;;4127949;28;20030;-68
2020/12/26 00:18:57;;;;;;;9.95;3.95;;;4.80;99.90;;;;;;4131839;28;20035;-68
2020/12/26 00:20:59;;;;;;;6.07;3.75;;;4.80;99.90;;;;;;4136117;28;20522;-68
2020/12/26 00:23:00;;;;;;;9.68;3.88;;;4.80;99.90;;;;;;4132771;28;20308;-68
2020/12/26 00:25:01;;;;;;;6.45;3.70;;;4.80;99.90;;;;;;4133973;28;20105;-68
2020/12/26 00:27:02;;;;;;;6.75;3.58;;;4.80;99.90;;;;;;4142459;28;20474;-68
2020/12/26 00:29:03;;;;;;;8.63;3.60;;;4.70;99.90;;;;;;4133972;28;20405;-68
2020/12/26 00:31:04;;;;;;;11.85;4.20;;;4.70;99.90;;;;;;4131924;28;20113;-68
2020/12/26 00:33:04;;;;;;;6.72;3.28;;;4.70;99.90;;;;;;4141863;28;20446;-68
2020/12/26 00:35:05;;;;;;;11.45;4.22;;;4.70;99.90;;;;;;4148711;28;20579;-68
2020/12/26 00:37:06;;;;;;;7.32;3.88;;;4.70;99.90;;;;;;4140780;28;20484;-68
2020/12/26 00:39:07;;;;;;;8.40;3.83;;;4.70;99.90;;;;;;4137831;28;20027;-68
2020/12/26 00:41:11;;;;;;;7.30;4.00;;;4.70;99.90;;;;;;4139486;28;20069;-68
2020/12/26 00:43:12;;;;;;;7.93;3.80;;;4.70;99.90;;;;;;4142057;28;20109;-68
2020/12/26 00:45:13;;;;;;;9.65;4.70;;;4.70;99.90;;;;;;4141348;28;20466;-68
2020/12/26 00:47:13;;;;;;;6.28;3.90;;;4.70;99.90;;;;;;4141783;28;20077;-68
2020/12/26 00:49:14;;;;;;;7.05;3.85;;;4.70;99.90;;;;;;4134216;28;20491;-68
2020/12/26 00:51:15;;;;;;;9.73;4.07;;;4.70;99.90;;;;;;4138906;28;20026;-68
2020/12/26 00:53:16;;;;;;;8.70;4.35;;;4.70;99.90;;;;;;4141898;28;20222;-68
2020/12/26 00:55:16;;;;;;;9.75;3.80;;;4.70;99.90;;;;;;4134406;28;20034;-68
2020/12/26 00:57:17;;;;;;;8.23;4.00;;;4.70;99.90;;;;;;4141367;28;20164;-68
2020/12/26 00:59:17;;;;;;;7.85;3.67;;;4.70;99.90;;;;;;4140246;28;20034;-68
2020/12/26 01:01:18;;;;;;;7.03;3.63;;;4.70;99.90;;;;;;4131754;28;20049;-68
2020/12/26 01:03:19;;;;;;;7.68;3.58;;;4.70;99.90;;;;;;4142042;28;20112;-68
2020/12/26 01:05:22;;;;;;;7.82;3.35;;;4.70;99.90;;;;;;4125829;28;20037;-68
2020/12/26 01:07:22;;;;;;;6.15;3.55;;;4.70;99.90;;;;;;4156175;28;20498;-68
2020/12/26 01:09:23;;;;;;;9.35;3.65;;;4.70;99.90;;;;;;4128993;28;20806;-68
2020/12/26 01:11:24;;;;;;;6.90;3.22;;;4.70;99.90;;;;;;4132248;28;20493;-68
2020/12/26 01:13:24;;;;;;;13.00;3.70;;;4.70;99.90;;;;;;4142004;28;20038;-68
2020/12/26 01:15:25;;;;;;;7.72;3.80;;;4.70;99.90;;;;;;4133510;28;20026;-68
2020/12/26 01:17:26;;;;;;;9.88;3.75;;;4.70;99.90;;;;;;4141936;28;20441;-68
2020/12/26 01:19:29;;;;;;;7.05;3.80;;;4.70;99.90;;;;;;4149948;28;20448;-68
2020/12/26 01:21:29;;;;;;;5.18;3.20;;;4.70;99.90;;;;;;4133580;28;20045;-68
2020/12/26 01:23:31;;;;;;;10.88;3.70;;;4.70;99.90;;;;;;4156369;28;20029;-68
2020/12/26 01:25:32;;;;;;;12.10;3.77;;;4.70;99.90;;;;;;4133632;28;20034;-68
2020/12/26 01:27:33;;;;;;;10.73;3.65;;;4.70;99.90;;;;;;4141792;28;20036;-68
2020/12/26 01:29:35;;;;;;;8.60;3.75;;;4.70;99.90;;;;;;4140622;28;20429;-68
2020/12/26 01:31:36;;;;;;;8.55;3.42;;;4.70;99.90;;;;;;4140891;28;20057;-68
2020/12/26 01:33:36;;;;;;;8.52;3.60;;;4.70;99.90;;;;;;4137374;28;20030;-68
2020/12/26 01:35:37;;;;;;;6.18;3.15;;;4.70;99.90;;;;;;4133006;28;20038;-68
2020/12/26 01:37:38;;;;;;;5.68;3.05;;;4.70;99.90;;;;;;4124845;28;20484;-68
2020/12/26 01:39:39;;;;;;;6.85;3.45;;;4.70;99.90;;;;;;4135400;28;20117;-68
2020/12/26 01:41:39;;;;;;;6.43;3.47;;;4.70;99.90;;;;;;4129636;28;20057;-68
2020/12/26 01:43:56;;;;;;;5.63;3.10;;;4.70;99.90;;;;;;4125421;28;20064;-68
2020/12/26 01:45:57;;;;;;;8.52;2.67;;;4.70;99.90;;;;;;4135010;28;20357;-68
2020/12/26 01:47:57;;;;;;;5.70;3.00;;;4.80;99.90;;;;;;4127631;28;20124;-68
2020/12/26 01:49:59;;;;;;;6.70;3.58;;;4.70;99.90;;;;;;4141043;28;20050;-68
2020/12/26 01:52:02;;;;;;;7.47;3.67;;;4.70;99.90;;;;;;4144024;28;20501;-68
2020/12/26 01:54:02;;;;;;;8.95;3.67;;;4.70;99.90;;;;;;4142785;28;20124;-68
2020/12/26 01:56:03;;;;;;;11.15;3.15;;;4.70;99.90;;;;;;4144237;28;20042;-68
2020/12/26 01:58:04;;;;;;;9.55;3.30;;;4.60;99.90;;;;;;4130289;28;20043;-68
2020/12/26 02:00:06;;;;;;;10.13;3.55;;;4.60;99.90;;;;;;4137107;28;20070;-68
2020/12/26 02:02:07;;;;;;;6.13;2.90;;;4.60;99.90;;;;;;4128012;28;20034;-68
2020/12/26 02:04:10;;;;;;;8.70;3.73;;;4.60;99.90;;;;;;4132432;28;20046;-68
2020/12/26 02:06:12;;;;;;;8.55;3.03;;;4.60;99.90;;;;;;4147842;28;20053;-68
2020/12/26 02:08:12;;;;;;;7.60;3.13;;;4.60;99.90;;;;;;4145762;28;20037;-68
2020/12/26 02:10:16;;;;;;;8.15;3.55;;;4.60;99.90;;;;;;4136811;28;20034;-68
2020/12/26 02:12:16;;;;;;;6.72;3.08;;;4.70;99.90;;;;;;4119766;28;20041;-68
2020/12/26 02:14:17;;;;;;;5.90;2.95;;;4.70;99.90;;;;;;4132343;28;20202;-68
2020/12/26 02:16:18;;;;;;;5.40;2.40;;;4.70;99.90;;;;;;4135076;28;20038;-68
2020/12/26 02:18:18;;;;;;;4.97;2.53;;;4.70;99.90;;;;;;4143289;28;20325;-68
2020/12/26 02:20:19;;;;;;;6.00;3.10;;;4.70;99.90;;;;;;4141429;28;20037;-68
2020/12/26 02:22:20;;;;;;;7.97;2.95;;;4.70;99.90;;;;;;4132928;28;20532;-68
2020/12/26 02:24:20;;;;;;;8.55;3.72;;;4.80;99.90;;;;;;4143472;28;20076;-68
2020/12/26 02:26:28;;;;;;;8.43;3.35;;;4.80;99.90;;;;;;4144535;28;20034;-68
2020/12/26 02:28:29;;;;;;;7.65;3.42;;;4.70;99.90;;;;;;4144335;28;20042;-68
2020/12/26 02:30:30;;;;;;;9.32;3.72;;;4.70;99.90;;;;;;4140859;28;20040;-68
2020/12/26 02:32:30;;;;;;;5.60;2.90;;;4.80;99.90;;;;;;4136884;28;20088;-68
2020/12/26 02:34:31;;;;;;;6.88;3.40;;;4.70;99.90;;;;;;4158001;28;20069;-68
2020/12/26 02:36:32;;;;;;;11.02;3.70;;;4.70;99.90;;;;;;4154261;28;20041;-68
2020/12/26 02:38:33;;;;;;;6.38;2.97;;;4.80;99.90;;;;;;4144276;28;20164;-68
2020/12/26 02:40:33;;;;;;;9.05;2.95;;;4.80;99.90;;;;;;4134911;28;21634;-68
2020/12/26 02:42:34;;;;;;;6.55;3.17;;;4.80;99.90;;;;;;4134276;28;20038;-68
2020/12/26 02:44:34;;;;;;;11.23;3.08;;;4.80;99.90;;;;;;4129812;28;20073;-68
2020/12/26 02:46:35;;;;;;;10.50;3.17;;;4.80;99.90;;;;;;4135683;28;20122;-68
2020/12/26 02:48:36;;;;;;;7.00;4.00;;;4.80;99.90;;;;;;4134595;28;20478;-68
2020/12/26 02:50:36;;;;;;;11.77;3.58;;;4.80;99.90;;;;;;4137579;28;20041;-68
2020/12/26 02:52:37;;;;;;;7.32;3.67;;;4.90;99.90;;;;;;4152714;28;20030;-68
2020/12/26 02:54:37;;;;;;;10.10;3.40;;;4.90;99.90;;;;;;4128556;28;20478;-68
2020/12/26 02:56:41;;;;;;;7.25;2.90;;;4.90;99.90;;;;;;4141047;28;20037;-68
2020/12/26 02:58:42;;;;;;;7.57;3.70;;;4.90;99.90;;;;;;4138777;28;20042;-68
2020/12/26 03:00:42;;;;;;;8.88;3.28;;;4.90;99.90;;;;;;4140069;28;20085;-68
2020/12/26 03:02:43;;;;;;;9.85;3.80;;;4.90;99.90;;;;;;4135328;28;20426;-68
2020/12/26 03:04:44;;;;;;;7.95;4.35;;;4.90;99.90;;;;;;4126781;28;20026;-68
2020/12/26 03:06:44;;;;;;;8.75;3.95;;;5.00;99.90;;;;;;4150931;28;20033;-68
2020/12/26 03:08:45;;;;;;;8.85;3.67;;;4.90;99.90;;;;;;4132406;28;20556;-68
2020/12/26 03:10:45;;;;;;;8.68;4.13;;;4.90;99.90;;;;;;4131159;28;20120;-68
2020/12/26 03:12:46;;;;;;;13.60;3.80;;;4.90;99.90;;;;;;4133444;28;20026;-68
2020/12/26 03:14:46;;;;;;;9.90;4.30;;;4.90;99.90;;;;;;4127338;28;20034;-68
2020/12/26 03:16:47;;;;;;;10.25;4.68;;;4.90;99.90;;;;;;4135316;28;20112;-68
2020/12/26 03:18:48;;;;;;;7.30;3.40;;;4.90;99.90;;;;;;4131036;28;20160;-68
2020/12/26 03:20:48;;;;;;;15.35;4.75;;;4.90;99.90;;;;;;4138149;28;20022;-68
2020/12/26 03:22:49;;;;;;;9.20;4.25;;;5.00;99.90;;;;;;4136678;28;20037;-68
2020/12/26 03:24:49;;;;;;;9.68;4.80;;;4.90;99.90;;;;;;4141529;28;20045;-68
2020/12/26 03:26:50;;;;;;;9.13;4.35;;;4.90;99.90;;;;;;4135444;28;20039;-68
2020/12/26 03:28:50;;;;;;;6.97;4.10;;;4.90;99.90;;;;;;4137791;28;20034;-68
2020/12/26 03:30:53;;;;;;;8.27;4.35;;;4.90;99.90;;;;;;4142216;28;20030;-68
2020/12/26 03:32:53;;;;;;;11.63;4.95;;;4.90;99.90;;;;;;4150265;28;20470;-68
2020/12/26 03:34:54;;;;;;;10.38;4.32;;;4.90;99.90;;;;;;4143699;28;20478;-68
2020/12/26 03:36:54;;;;;;;9.98;4.85;;;4.90;99.90;;;;;;4138348;28;20031;-68
2020/12/26 03:38:55;;;;;;;14.98;5.45;;;4.90;99.90;;;;;;4130761;28;20034;-68
2020/12/26 03:40:56;;;;;;;7.65;4.75;;;4.90;99.90;;;;;;4133388;28;20054;-68
2020/12/26 03:42:56;;;;;;;11.38;5.20;;;4.80;99.90;;;;;;4140540;28;20210;-68
2020/12/26 03:44:57;;;;;;;9.30;4.45;;;4.80;99.90;;;;;;4134158;28;20109;-68
2020/12/26 03:46:58;;;;;;;8.52;4.78;;;4.80;99.90;;;;;;4135032;28;20496;-68
2020/12/26 03:48:58;;;;;;;9.85;5.55;;;4.90;99.90;;;;;;4131213;28;20430;-68
2020/12/26 03:50:59;;;;;;;9.65;4.82;;;4.80;99.90;;;;;;4135693;28;20498;-68
2020/12/26 03:52:59;;;;;;;8.02;4.15;;;4.90;99.90;;;;;;4135484;28;20070;-68
2020/12/26 03:55:00;;;;;;;9.63;5.13;;;4.80;99.90;;;;;;4133847;28;20034;-68
2020/12/26 03:57:00;;;;;;;6.85;4.57;;;4.90;99.90;;;;;;4133741;28;20368;-68
2020/12/26 03:59:01;;;;;;;8.55;4.53;;;4.90;99.90;;;;;;4135326;28;20121;-68
2020/12/26 04:01:02;;;;;;;9.13;5.03;;;4.90;99.90;;;;;;4135488;28;20662;-68
2020/12/26 04:03:03;;;;;;;11.75;4.57;;;5.00;99.90;;;;;;4130312;28;20037;-68
2020/12/26 04:05:04;;;;;;;9.90;4.85;;;4.90;99.90;;;;;;4133957;28;20038;-68
2020/12/26 04:07:04;;;;;;;9.48;4.95;;;4.90;99.90;;;;;;4134717;28;20028;-68
2020/12/26 04:09:05;;;;;;;11.38;5.40;;;5.00;99.90;;;;;;4131918;28;20496;-68
2020/12/26 04:11:06;;;;;;;7.80;4.53;;;4.90;99.90;;;;;;4133972;28;20181;-68
2020/12/26 04:13:07;;;;;;;8.73;4.40;;;4.90;99.90;;;;;;4134107;28;20035;-68
2020/12/26 04:15:08;;;;;;;10.60;4.43;;;4.90;99.90;;;;;;4135336;28;20046;-68
2020/12/26 04:17:08;;;;;;;7.53;4.57;;;4.90;99.90;;;;;;4135242;28;20093;-68
2020/12/26 04:19:09;;;;;;;9.85;4.65;;;4.90;99.90;;;;;;4134812;28;20397;-68
2020/12/26 04:21:09;;;;;;;6.45;3.85;;;4.90;99.90;;;;;;4136346;28;20041;-68
2020/12/26 04:23:10;;;;;;;9.68;4.22;;;5.00;99.90;;;;;;4135314;28;20049;-68
2020/12/26 04:25:10;;;;;;;8.80;4.72;;;5.00;99.90;;;;;;4135171;28;20026;-68
2020/12/26 04:27:11;;;;;;;8.85;4.68;;;5.00;99.90;;;;;;4135629;28;20035;-68
2020/12/26 04:29:13;;;;;;;5.40;3.70;;;5.00;99.90;;;;;;4134718;28;20034;-68
2020/12/26 04:31:13;;;;;;;5.93;3.90;;;5.00;99.90;;;;;;4133071;28;20266;-68
2020/12/26 04:33:14;;;;;;;10.30;3.90;;;5.00;99.90;;;;;;4149695;28;20471;-68
2020/12/26 04:35:16;;;;;;;8.65;4.25;;;5.00;99.90;;;;;;4135106;28;20038;-68
2020/12/26 04:37:17;;;;;;;8.43;4.07;;;5.00;99.90;;;;;;4133814;28;20041;-68
2020/12/26 04:39:17;;;;;;;6.40;3.78;;;5.00;99.90;;;;;;4149894;28;20104;-68
2020/12/26 04:41:19;;;;;;;7.95;3.80;;;5.10;99.90;;;;;;4132356;28;20035;-68
2020/12/26 04:43:19;;;;;;;6.80;4.03;;;5.00;99.90;;;;;;4135509;28;20054;-68
2020/12/26 04:45:20;;;;;;;7.43;3.85;;;5.10;99.90;;;;;;4130838;28;20270;-68
2020/12/26 04:47:51;;;;;;;4.82;2.95;;;5.00;99.90;;;;;;4134604;28;20031;-68
2020/12/26 04:49:56;;;;;;;6.80;3.53;;;5.10;99.90;;;;;;4132700;28;20038;-68
2020/12/26 04:52:02;;;;;;;4.35;2.90;;;5.10;99.90;;;;;;4134592;28;20031;-68
2020/12/26 04:54:10;;;;;;;8.63;3.53;;;5.10;99.90;;;;;;4134579;28;20042;-68
2020/12/26 04:56:11;;;;;;;6.15;3.40;;;5.10;99.90;;;;;;4133759;28;20046;-68
2020/12/26 04:58:12;;;;;;;7.30;3.55;;;5.10;99.90;;;;;;4135813;28;20045;-68
2020/12/26 05:00:14;;;;;;;7.80;3.70;;;5.10;99.90;;;;;;4134305;28;20374;-68
2020/12/26 05:02:15;;;;;;;5.93;3.25;;;5.10;99.90;;;;;;4131302;28;20069;-68
2020/12/26 05:04:17;;;;;;;7.20;3.30;;;5.10;99.90;;;;;;4132782;28;20117;-68
2020/12/26 05:06:19;;;;;;;6.95;3.40;;;5.10;99.90;;;;;;4136125;28;20165;-68
2020/12/26 05:08:20;;;;;;;5.47;3.70;;;5.10;99.90;;;;;;4131588;28;20029;-68
2020/12/26 05:10:20;;;;;;;8.48;4.20;;;5.10;99.90;;;;;;4133841;28;20461;-68
2020/12/26 05:12:21;;;;;;;7.28;3.88;;;5.10;99.90;;;;;;4132881;28;20038;-68
2020/12/26 05:14:23;;;;;;;5.72;3.90;;;5.10;99.90;;;;;;4134086;28;20045;-68
2020/12/26 05:16:24;;;;;;;;;;;5.00;99.90;;;;;;4139663;28;20236;-68
2020/12/26 05:18:24;;;;;;;6.78;3.75;;;5.00;99.90;;;;;;4145441;28;20336;-68
2020/12/26 05:20:26;;;;;;;11.27;4.32;;;5.00;99.90;;;;;;4131999;28;20429;-68
2020/12/26 05:22:27;;;;;;;8.23;4.75;;;5.00;99.90;;;;;;4129175;28;20360;-68
2020/12/26 05:24:28;;;;;;;9.13;4.65;;;5.00;99.90;;;;;;4131527;28;20041;-68
2020/12/26 05:26:30;;;;;;;7.32;4.40;;;5.00;99.90;;;;;;4132658;28;20054;-68
2020/12/26 05:28:32;;;;;;;7.25;4.25;;;5.00;99.90;;;;;;4134669;28;20026;-68
2020/12/26 05:30:35;;;;;;;8.68;4.38;;;4.90;99.90;;;;;;4133319;28;20030;-68
2020/12/26 05:32:42;;;;;;;5.90;4.00;;;4.90;99.90;;;;;;4133223;28;20038;-68
2020/12/26 05:34:44;;;;;;;8.13;4.65;;;4.90;99.90;;;;;;4134033;28;20034;-68
2020/12/26 05:36:45;;;;;;;8.30;4.93;;;4.90;99.90;;;;;;4132513;28;20057;-68
2020/12/26 05:38:50;;;;;;;7.78;5.07;;;4.80;99.90;;;;;;4148561;28;20277;-68
2020/12/26 05:40:59;;;;;;;8.65;4.93;;;4.80;99.90;;;;;;4133125;28;20052;-68
2020/12/26 05:43:06;;;;;;;11.57;5.53;;;4.80;99.90;;;;;;4141091;28;20517;-68
2020/12/26 05:45:10;;;;;;;6.93;4.85;;;4.80;99.90;;;;;;4133172;28;20034;-68
2020/12/26 05:47:11;;;;;;;7.88;5.32;;;4.70;99.90;;;;;;4141734;28;20088;-68
2020/12/26 05:49:22;;;;;;;6.80;4.97;;;4.70;99.90;;;;;;4140384;28;20030;-68
2020/12/26 05:51:25;;;;;;;8.80;5.03;;;4.70;99.90;;;;;;4130450;28;20580;-68
2020/12/26 05:53:27;;;;;;;8.15;5.85;;;4.70;99.90;;;;;;4139072;28;20034;-68
2020/12/26 05:55:45;;;;;;;9.25;5.47;;;4.60;99.90;;;;;;4132599;28;20037;-68
2020/12/26 05:57:52;;;;;;;9.30;5.30;;;4.60;99.90;;;;;;4137244;28;20389;-68
2020/12/26 05:59:56;;;;;;;11.95;5.25;;;4.60;99.90;;;;;;4137314;28;20046;-68
2020/12/26 06:01:59;;;;;;;7.90;5.55;;;4.60;99.90;;;;;;4136791;28;20065;-68
2020/12/26 06:04:07;;;;;;;9.90;5.65;;;4.50;99.90;;;;;;4141629;28;20041;-68
2020/12/26 06:06:08;;;;;;;10.15;5.85;;;4.50;99.90;;;;;;4138462;28;20039;-68
2020/12/26 06:08:11;;;;;;;9.30;5.68;;;4.50;99.90;;;;;;4152538;28;20033;-68
2020/12/26 06:10:11;;;;;;;10.55;5.75;;;4.50;99.90;;;;;;4134172;28;20049;-68
2020/12/26 06:12:16;;;;;;;11.15;6.47;;;4.40;99.90;;;;;;4138875;28;20345;-68
2020/12/26 06:14:18;;;;;;;10.05;5.57;;;4.40;99.90;;;;;;4140980;28;20030;-68
2020/12/26 06:16:24;;;;;;;11.10;6.50;;;4.40;99.90;;;;;;4132734;28;20104;-68
2020/12/26 06:18:25;;;;;;;11.48;6.43;;;4.40;99.90;;;;;;4138574;28;20034;-68
2020/12/26 06:20:26;;;;;;;10.15;5.95;;;4.40;99.90;;;;;;4131008;28;20298;-68
2020/12/26 06:22:48;;;;;;;13.98;6.45;;;4.40;99.90;;;;;;4124698;28;20731;-68
2020/12/26 06:24:49;;;;;;;9.70;5.70;;;4.40;99.90;;;;;;4134538;28;20044;-68
2020/12/26 06:26:58;;;;;;;10.52;6.18;;;4.30;99.90;;;;;;4127382;28;20282;-68
2020/12/26 06:29:02;;;;;;;12.38;6.57;;;4.30;99.90;;;;;;4139533;28;20037;-68
2020/12/26 06:31:06;;;;;;;11.38;6.70;;;4.30;99.90;;;;;;4123017;28;20046;-68
2020/12/26 06:33:07;;;;;;;;;;;4.30;99.90;;;;;;4138267;28;20034;-68
2020/12/26 06:35:10;;;;;;;10.60;6.22;;;4.30;99.90;;;;;;4142657;28;19913;-68
2020/12/26 06:37:12;;;;;;;11.40;6.55;;;4.20;99.90;;;;;;4136953;28;20118;-68
2020/12/26 06:39:32;;;;;;;9.52;6.90;;;4.20;99.90;;;;;;4129763;28;20022;-68
2020/12/26 06:41:43;;;;;;;11.05;7.00;;;4.20;99.90;;;;;;4123930;28;20042;-68
2020/12/26 06:43:45;;;;;;;10.95;6.50;;;4.20;99.90;;;;;;4141578;28;20101;-68
2020/12/26 06:45:46;;;;;;;;;;;4.10;99.90;;;;;;4142748;28;20026;-68
2020/12/26 06:47:47;;;;;;;10.57;6.80;;;4.10;99.90;;;;;;4142345;28;19959;-68
2020/12/26 06:49:47;;;;;;;11.98;6.95;;;4.10;99.90;;;;;;4140091;28;20117;-68
2020/12/26 06:51:48;;;;;;;10.98;6.72;;;4.10;99.90;;;;;;4137338;28;20026;-68
2020/12/26 06:53:49;;;;;;;11.15;6.70;;;4.10;99.90;;;;;;4142961;28;20030;-68
2020/12/26 06:55:50;;;;;;;11.85;7.45;;;4.10;99.90;;;;;;4142124;28;20411;-68
2020/12/26 06:57:51;;;;;;;12.77;7.25;;;4.10;99.90;;;;;;4135195;28;20036;-68
2020/12/26 06:59:51;;;;;;;11.38;7.03;;;4.10;99.90;;;;;;4143166;28;20397;-68
2020/12/26 07:02:06;;;;;;;11.38;7.40;;;4.10;99.90;;;;;;4139705;28;20045;-68
2020/12/26 07:04:17;;;;;;;12.10;6.95;;;4.10;99.90;;;;;;4141730;28;20548;-68
2020/12/26 07:06:54;;;;;;;11.65;7.53;;;4.10;99.90;;;;;;4143523;28;20026;-68
2020/12/26 07:08:54;;;;;;;10.88;7.57;;;4.00;99.90;;;;;;4139728;28;20030;-68
2020/12/26 07:10:57;;;;;;;10.75;7.38;;;4.00;99.90;;;;;;4142411;28;20088;-68
2020/12/26 07:12:58;;;;;;;13.27;7.40;;;4.00;99.90;;;;;;4141504;28;20038;-69
2020/12/26 07:14:58;;;;;;;11.63;7.20;;;4.00;99.90;;;;;;4142256;28;20068;-70
2020/12/26 07:17:02;;;;;;;14.00;8.23;;;4.00;99.90;;;;;;4141766;28;20370;-70
2020/12/26 07:19:22;;;;;;;13.88;7.60;;;4.00;99.90;;;;;;4125024;28;20030;-70
2020/12/26 07:21:28;;;;;;;13.90;7.57;;;3.90;99.90;;;;;;4133794;28;20113;-68
2020/12/26 07:23:32;;;;;;;12.07;7.97;;;3.90;99.90;;;;;;4142820;28;20125;-69
2020/12/26 07:25:33;;;;;;;14.57;8.57;;;3.90;99.90;;;;;;4140999;28;20420;-69
2020/12/26 07:27:41;;;;;;;14.32;8.35;;;3.90;99.90;;;;;;4142028;28;20027;-69
2020/12/26 07:29:49;;;;;;;12.95;8.48;;;3.80;99.90;;;;;;4134694;28;20030;-69
2020/12/26 07:31:49;;;;;;;13.75;7.90;;;3.80;99.90;;;;;;4141698;28;20022;-69
2020/12/26 07:33:50;;;;;;;13.88;7.93;;;3.80;99.90;;;;;;4143191;28;20273;-69
2020/12/26 07:35:51;;;;;;;12.45;8.07;;;3.90;99.90;;;;;;4141768;28;20104;-69
2020/12/26 07:37:51;;;;;;;13.95;8.38;;;3.90;99.90;;;;;;4142403;28;20038;-69
2020/12/26 07:39:52;;;;;;;10.82;7.68;;;3.90;99.90;;;;;;4133739;28;20046;-69
2020/12/26 07:41:53;;;;;;;15.35;8.05;;;3.90;99.90;;;;;;4136717;28;20026;-69
2020/12/26 07:43:53;;;;;;;13.60;8.35;;;3.90;99.90;;;;;;4137509;28;20117;-69
2020/12/26 07:45:56;;;;;;;13.95;8.60;;;3.90;99.90;;;;;;4135969;28;20041;-69
2020/12/26 07:47:59;;;;;;;14.35;8.32;;;3.90;99.90;;;;;;4132136;28;20034;-69
2020/12/26 07:49:59;;;;;;;16.70;8.05;;;3.80;99.90;;;;;;4135611;28;20026;-69
2020/12/26 07:52:09;;;;;;;12.98;7.68;;;3.90;99.90;;;;;;4137522;28;20029;-69
2020/12/26 07:54:15;;;;;;;16.08;8.25;;;3.90;99.90;;;;;;4154437;28;20049;-69
2020/12/26 07:56:26;;;;;;;12.95;8.10;;;3.90;99.90;;;;;;4133176;28;20041;-69
2020/12/26 07:58:27;;;;;;;12.38;7.03;;;3.90;99.90;;;;;;4137908;28;20231;-69
2020/12/26 08:00:30;;;;;;;11.82;7.72;;;3.90;99.90;;;;;;4139444;28;20029;-69
2020/12/26 08:02:31;;;;;;;15.65;7.50;;;3.90;99.90;;;;;;4134959;28;20129;-69
2020/12/26 08:04:42;;;;;;;12.35;7.30;;;3.90;99.90;;;;;;4136090;28;20499;-70
2020/12/26 08:06:45;;;;;;;13.90;7.47;;;3.90;99.90;;;;;;4146714;28;20029;-69
2020/12/26 08:08:46;;;;;;;;;;;3.90;99.90;;;;;;4130815;28;20073;-69
2020/12/26 08:10:47;;;;;;;11.23;6.40;;;3.90;99.90;;;;;;4134629;28;19933;-69
2020/12/26 08:12:56;;;;;;;13.00;6.55;;;3.90;99.90;;;;;;4138325;28;20108;-70
2020/12/26 08:14:57;;;;;;;10.95;6.78;;;3.90;99.90;;;;;;4137090;28;20068;-69
2020/12/26 08:16:58;;;;;;;9.00;6.05;;;3.90;99.90;;;;;;4156038;28;20037;-69
2020/12/26 08:19:02;;;;;;;7.68;5.57;;;3.90;99.90;;;;;;4135564;28;20038;-69
2020/12/26 08:21:02;;;;;;;11.55;6.60;;;3.90;99.90;;;;;;4140461;28;20025;-69
2020/12/26 08:23:04;;;;;;;11.98;6.60;;;3.90;99.90;;;;;;4116552;28;20077;-69
2020/12/26 08:25:09;;;;;;;8.90;5.97;;;3.90;99.90;;;;;;4142803;28;20099;-69
2020/12/26 08:27:10;;;;;;;8.88;5.93;;;4.00;99.90;;;;;;4142786;28;20072;-69
2020/12/26 08:29:11;;;;;;;11.05;6.15;;;4.00;99.90;;;;;;4141133;28;20026;-69
2020/12/26 08:31:14;;;;;;;8.98;6.00;;;4.00;99.90;;;;;;4136926;28;20042;-70
2020/12/26 08:33:36;;;;;;;10.40;6.18;;;4.00;99.90;;;;;;4143434;28;20041;-70
2020/12/26 08:35:48;;;;;;;10.77;5.45;;;4.00;99.90;;;;;;4135593;28;20049;-70
2020/12/26 08:37:59;;;;;;;10.00;5.70;;;4.00;99.90;;;;;;4142672;28;20050;-70
2020/12/26 08:40:03;;;;;;;9.50;5.70;;;4.00;99.90;;;;;;4142600;28;20696;-70
2020/12/26 08:42:06;;;;;;;9.35;5.85;;;4.00;99.90;;;;;;4137758;28;20054;-70
2020/12/26 08:44:12;;;;;;;11.60;5.90;;;4.00;99.90;;;;;;4139652;28;20036;-70
2020/12/26 08:46:20;;;;;;;8.55;4.88;;;4.00;99.90;;;;;;4140410;28;20026;-70
2020/12/26 08:48:23;;;;;;;9.02;5.07;;;4.00;99.90;;;;;;4136112;28;20441;-70
2020/12/26 08:50:24;;;;;;;8.77;5.03;;;4.00;99.90;;;;;;4140637;28;20429;-69
2020/12/26 08:52:25;;;;;;;10.85;5.75;;;4.00;99.90;;;;;;4152300;28;20123;-69
2020/12/26 08:54:27;;;;;;;8.18;4.78;;;4.00;99.90;;;;;;4139927;28;20061;-69
2020/12/26 08:56:34;;;;;;;8.23;5.47;;;4.00;99.90;;;;;;4139361;28;20034;-69
2020/12/26 08:58:35;;;;;;;9.20;5.13;;;4.10;99.90;;;;;;4139799;28;20493;-69
2020/12/26 09:00:36;;;;;;;10.60;5.63;;;4.10;99.90;;;;;;4139707;28;20041;-69
2020/12/26 09:02:49;;;;;;;8.68;4.93;;;4.10;99.90;;;;;;4133507;28;20038;-69
2020/12/26 09:04:50;;;;;;;12.07;5.70;;;4.10;99.90;;;;;;4127968;28;20103;-69
2020/12/26 09:06:50;;;;;;;11.07;5.82;;;4.20;99.90;;;;;;4129394;28;20497;-69
2020/12/26 09:08:51;;;;;;;7.78;5.18;;;4.20;99.90;;;;;;4140386;28;20395;-69
2020/12/26 09:11:12;;;;;;;10.23;5.65;;;4.20;99.90;;;;;;4138843;28;20046;-69
2020/12/26 09:13:15;;;;;;;16.30;5.82;;;4.20;99.90;;;;;;4139369;28;20430;-69
2020/12/26 09:15:16;;;;;;;9.88;5.63;;;4.20;99.90;;;;;;4140207;28;20053;-69
2020/12/26 09:17:22;;;;;;;12.20;6.00;;;4.30;99.90;;;;;;4141293;28;20497;-69
2020/12/26 09:19:23;;;;;;;10.13;5.82;;;4.20;99.90;;;;;;4139632;28;20073;-69
2020/12/26 09:21:25;;;;;;;14.98;6.15;;;4.30;99.90;;;;;;4131379;28;20038;-69
2020/12/26 09:23:32;;;;;;;10.32;5.95;;;4.30;99.90;;;;;;4140600;28;20091;-68
2020/12/26 09:25:32;;;;;;;14.02;6.22;;;4.30;99.90;;;;;;4138957;28;20539;-69
2020/12/26 09:27:33;;;;;;;10.15;5.60;;;4.40;99.90;;;;;;4124165;28;20061;-69
2020/12/26 09:29:33;;;;;;;12.18;6.18;;;4.30;99.90;;;;;;4135355;28;20442;-69
2020/12/26 09:31:38;;;;;;;12.75;6.63;;;4.40;99.90;;;;;;4136777;28;20030;-69
2020/12/26 09:33:39;;;;;;;12.68;6.45;;;4.40;99.90;;;;;;4138520;28;20037;-70
2020/12/26 09:35:40;;;;;;;11.50;6.72;;;4.40;99.90;;;;;;4140034;28;20364;-69
2020/12/26 09:37:54;;;;;;;16.55;7.00;;;4.40;99.90;;;;;;4137212;28;20064;-69
2020/12/26 09:39:55;;;;;;;14.88;7.13;;;4.40;99.90;;;;;;4134483;28;20038;-69
2020/12/26 09:41:56;;;;;;;16.00;6.85;;;4.50;99.90;;;;;;4136466;28;20038;-69
2020/12/26 09:43:57;;;;;;;12.82;6.80;;;4.50;99.90;;;;;;4137898;28;20044;-69
2020/12/26 09:45:58;;;;;;;11.63;6.80;;;4.50;99.90;;;;;;4130791;28;20038;-69
2020/12/26 09:47:59;;;;;;;12.73;7.13;;;4.50;99.90;;;;;;4138940;28;20449;-69
2020/12/26 09:49:59;;;;;;;15.23;7.53;;;4.60;99.90;;;;;;4135928;28;20036;-70
2020/12/26 09:52:00;;;;;;;13.00;6.75;;;4.50;99.90;;;;;;4139777;28;20516;-70
2020/12/26 09:54:02;;;;;;;21.83;7.15;;;4.40;99.90;;;;;;4138725;28;20030;-69
2020/12/26 09:56:06;;;;;;;12.30;7.35;;;4.50;99.90;;;;;;4140277;28;20481;-70
2020/12/26 09:58:07;;;;;;;13.80;7.65;;;4.40;99.90;;;;;;4135616;28;20046;-69
2020/12/26 10:00:09;;;;;;;14.45;7.40;;;4.50;99.90;;;;;;4138686;28;20069;-69
2020/12/26 10:02:09;;;;;;;11.98;6.47;;;4.50;99.90;;;;;;4133774;28;20180;-69
2020/12/26 10:04:10;;;;;;;17.80;7.80;;;4.50;99.90;;;;;;4134773;28;20285;-69
2020/12/26 10:06:15;;;;;;;13.13;7.22;;;4.60;99.90;;;;;;4153434;28;20037;-69
2020/12/26 10:08:15;;;;;;;13.90;7.55;;;4.50;99.90;;;;;;4137170;28;20034;-69
2020/12/26 10:10:16;;;;;;;15.00;7.03;;;4.60;99.90;;;;;;4139433;28;20049;-69
2020/12/26 10:12:16;;;;;;;14.98;7.38;;;4.60;99.90;;;;;;4117223;28;20034;-69
2020/12/26 10:14:17;;;;;;;14.00;6.78;;;4.60;99.90;;;;;;4119573;28;20038;-69
2020/12/26 10:16:18;;;;;;;14.35;7.65;;;4.60;99.90;;;;;;4140027;28;20373;-69
2020/12/26 10:18:19;;;;;;;15.23;7.90;;;4.60;99.90;;;;;;4138843;28;20045;-69
2020/12/26 10:20:19;;;;;;;16.70;7.50;;;4.60;99.90;;;;;;4136973;28;20426;-70
2020/12/26 10:22:20;;;;;;;13.82;7.80;;;4.60;99.90;;;;;;4138990;28;20046;-69
2020/12/26 10:24:21;;;;;;;14.57;7.35;;;4.70;99.90;;;;;;4140239;28;20104;-69
2020/12/26 10:26:21;;;;;;;14.30;7.50;;;4.70;99.90;;;;;;4145749;28;20334;-69
2020/12/26 10:28:22;;;;;;;15.07;7.47;;;4.70;99.90;;;;;;4141647;28;20038;-69
2020/12/26 10:30:23;;;;;;;17.25;8.00;;;4.80;99.90;;;;;;4138793;28;20074;-69
2020/12/26 10:32:24;;;;;;;16.00;8.05;;;4.70;99.90;;;;;;4134323;28;20120;-69
2020/12/26 10:34:24;;;;;;;16.45;7.85;;;4.70;99.90;;;;;;4142796;28;20046;-69
2020/12/26 10:36:25;;;;;;;13.32;6.63;;;4.70;99.90;;;;;;4137740;28;20046;-69
2020/12/26 10:38:26;;;;;;;12.63;7.32;;;4.80;99.90;;;;;;4143683;28;20121;-69
2020/12/26 10:40:27;;;;;;;18.83;8.20;;;4.70;99.90;;;;;;4124368;28;20106;-69
2020/12/26 10:42:27;;;;;;;17.75;7.93;;;4.80;99.90;;;;;;4137103;28;20046;-69